createdAt,value
2022-09-03T00:02:22.559Z,17.00
2022-09-03T00:05:21.365Z,17.00
2022-09-03T00:08:03.931Z,17.00
2022-09-03T00:10:51.176Z,16.90
2022-09-03T00:13:27.489Z,16.90
2022-09-03T00:15:57.399Z,16.80
2022-09-03T00:18:30.191Z,16.80
2022-09-03T00:21:15.865Z,16.80
2022-09-03T00:23:47.871Z,16.70
2022-09-03T00:26:14.905Z,16.70
2022-09-03T00:29:03.811Z,16.60
2022-09-03T00:31:42.955Z,16.60
2022-09-03T00:34:29.355Z,16.60
2022-09-03T00:36:56.328Z,16.60
2022-09-03T00:39:28.258Z,16.50
2022-09-03T00:42:13.279Z,16.50
2022-09-03T00:45:05.307Z,16.50
2022-09-03T00:47:59.609Z,16.40
2022-09-03T00:51:05.420Z,16.40
2022-09-03T00:53:39.408Z,16.40
2022-09-03T00:56:36.887Z,16.40
2022-09-03T00:59:06.654Z,16.40
2022-09-03T01:02:15.407Z,16.40
2022-09-03T01:04:54.091Z,16.30
2022-09-03T01:07:34.339Z,16.30
2022-09-03T01:10:19.115Z,16.30
2022-09-03T01:12:52.116Z,16.20
2022-09-03T01:15:36.124Z,16.20
2022-09-03T01:18:40.400Z,16.10
2022-09-03T01:21:52.170Z,16.00
2022-09-03T01:24:32.514Z,16.00
2022-09-03T01:26:59.322Z,16.00
2022-09-03T01:29:44.568Z,16.00
2022-09-03T01:32:33.916Z,16.00
2022-09-03T01:35:06.628Z,15.90
2022-09-03T01:38:02.106Z,15.90
2022-09-03T01:40:40.740Z,15.90
2022-09-03T01:43:54.656Z,15.90
2022-09-03T01:46:31.176Z,15.80
2022-09-03T01:48:59.289Z,15.80
2022-09-03T01:51:30.316Z,15.70
2022-09-03T01:54:10.909Z,15.70
2022-09-03T01:57:03.229Z,15.70
2022-09-03T01:59:44.088Z,15.70
2022-09-03T02:02:21.351Z,15.70
2022-09-03T02:05:10.774Z,15.70
2022-09-03T02:07:40.037Z,15.60
2022-09-03T02:10:16.981Z,15.60
2022-09-03T02:12:56.880Z,15.60
2022-09-03T02:15:26.083Z,15.60
2022-09-03T02:17:56.824Z,15.60
2022-09-03T02:20:28.733Z,15.60
2022-09-03T02:22:57.480Z,15.50
2022-09-03T02:25:30.616Z,15.40
2022-09-03T02:27:58.229Z,15.40
2022-09-03T02:30:25.270Z,15.30
2022-09-03T02:32:52.387Z,15.30
2022-09-03T02:35:19.574Z,15.30
2022-09-03T02:37:46.707Z,15.20
2022-09-03T02:40:13.766Z,15.20
2022-09-03T02:42:41.093Z,15.20
2022-09-03T02:45:20.055Z,15.20
2022-09-03T02:47:52.355Z,15.10
2022-09-03T02:50:19.365Z,15.10
2022-09-03T02:52:46.470Z,15.10
2022-09-03T02:55:13.876Z,15.10
2022-09-03T02:57:40.971Z,15.10
2022-09-03T03:00:09.016Z,15.00
2022-09-03T03:02:36.089Z,15.00
2022-09-03T03:05:03.625Z,14.90
2022-09-03T03:07:37.872Z,14.90
2022-09-03T03:10:05.408Z,14.90
2022-09-03T03:12:32.495Z,14.90
2022-09-03T03:14:59.478Z,14.90
2022-09-03T03:17:26.549Z,15.00
2022-09-03T03:19:53.489Z,14.90
2022-09-03T03:22:20.440Z,15.00
2022-09-03T03:24:50.548Z,15.00
2022-09-03T03:27:19.019Z,14.90
2022-09-03T03:29:46.029Z,14.80
2022-09-03T03:32:13.137Z,14.80
2022-09-03T03:34:40.193Z,14.80
2022-09-03T03:37:07.178Z,14.80
2022-09-03T03:39:34.231Z,14.80
2022-09-03T03:42:01.246Z,14.70
2022-09-03T03:44:29.767Z,14.70
2022-09-03T03:46:56.864Z,14.70
2022-09-03T03:49:23.908Z,14.70
2022-09-03T03:51:50.867Z,14.70
2022-09-03T03:54:19.746Z,14.70
2022-09-03T03:56:46.811Z,14.70
2022-09-03T03:59:22.743Z,14.70
2022-09-03T04:01:50.799Z,14.70
2022-09-03T04:04:17.905Z,14.60
2022-09-03T04:06:44.874Z,14.50
2022-09-03T04:09:12.194Z,14.50
2022-09-03T04:11:39.731Z,14.50
2022-09-03T04:14:06.790Z,14.40
2022-09-03T04:16:33.895Z,14.40
2022-09-03T04:19:01.744Z,14.50
2022-09-03T04:21:30.770Z,14.40
2022-09-03T04:23:58.979Z,14.40
2022-09-03T04:26:31.845Z,14.40
2022-09-03T04:29:01.188Z,14.30
2022-09-03T04:31:28.527Z,14.20
2022-09-03T04:33:55.505Z,14.20
2022-09-03T04:36:24.808Z,14.10
2022-09-03T04:38:54.706Z,14.10
2022-09-03T04:41:27.385Z,14.10
2022-09-03T04:43:56.632Z,14.10
2022-09-03T04:46:26.335Z,14.00
2022-09-03T04:48:55.537Z,14.10
2022-09-03T04:51:28.165Z,14.00
2022-09-03T04:53:58.356Z,14.00
2022-09-03T04:56:28.122Z,13.90
2022-09-03T04:59:00.292Z,13.90
2022-09-03T05:01:31.104Z,13.90
2022-09-03T05:03:59.223Z,13.80
2022-09-03T05:06:27.630Z,13.90
2022-09-03T05:08:55.853Z,14.00
2022-09-03T05:11:25.144Z,14.00
2022-09-03T05:13:54.447Z,14.00
2022-09-03T05:16:22.584Z,14.00
2022-09-03T05:18:53.013Z,14.00
2022-09-03T05:21:20.112Z,14.00
2022-09-03T05:23:50.459Z,14.10
2022-09-03T05:26:27.799Z,14.00
2022-09-03T05:28:57.603Z,14.00
2022-09-03T05:31:26.784Z,13.90
2022-09-03T05:33:58.652Z,13.90
2022-09-03T05:36:28.867Z,13.90
2022-09-03T05:38:58.365Z,13.90
2022-09-03T05:41:27.362Z,14.00
2022-09-03T05:43:56.251Z,14.10
2022-09-03T05:46:31.709Z,14.10
2022-09-03T05:49:00.613Z,14.20
2022-09-03T05:51:28.578Z,14.20
2022-09-03T05:53:55.777Z,14.30
2022-09-03T05:56:25.318Z,14.40
2022-09-03T05:58:54.652Z,14.40
2022-09-03T06:01:22.882Z,14.40
2022-09-03T06:03:58.765Z,14.60
2022-09-03T06:06:27.363Z,14.60
2022-09-03T06:08:55.632Z,14.70
2022-09-03T06:11:28.258Z,14.70
2022-09-03T06:14:02.809Z,14.80
2022-09-03T06:16:32.176Z,14.90
2022-09-03T06:19:00.925Z,14.90
2022-09-03T06:21:28.482Z,15.00
2022-09-03T06:23:59.392Z,15.00
2022-09-03T06:26:29.297Z,15.20
2022-09-03T06:28:57.487Z,15.10
2022-09-03T06:31:25.563Z,15.20
2022-09-03T06:33:54.879Z,15.20
2022-09-03T06:36:23.437Z,15.30
2022-09-03T06:38:56.059Z,15.40
2022-09-03T06:41:25.686Z,15.40
2022-09-03T06:44:03.423Z,15.50
2022-09-03T06:46:32.613Z,15.60
2022-09-03T06:49:00.519Z,15.60
2022-09-03T06:51:29.959Z,15.70
2022-09-03T06:54:08.461Z,15.80
2022-09-03T06:56:40.324Z,15.90
2022-09-03T06:59:13.139Z,16.00
2022-09-03T07:01:44.642Z,16.10
2022-09-03T07:04:16.847Z,16.10
2022-09-03T07:06:46.541Z,16.10
2022-09-03T07:09:15.610Z,16.20
2022-09-03T07:11:47.976Z,16.30
2022-09-03T07:14:18.824Z,16.40
2022-09-03T07:16:46.295Z,16.40
2022-09-03T07:19:13.776Z,16.40
2022-09-03T07:21:48.126Z,16.40
2022-09-03T07:24:17.099Z,16.50
2022-09-03T07:26:46.427Z,16.50
2022-09-03T07:29:14.833Z,16.60
2022-09-03T07:31:43.257Z,16.70
2022-09-03T07:34:12.716Z,16.70
2022-09-03T07:36:46.958Z,16.70
2022-09-03T07:39:16.513Z,16.80
2022-09-03T07:41:45.996Z,16.80
2022-09-03T07:44:15.470Z,16.80
2022-09-03T07:46:45.377Z,16.90
2022-09-03T07:49:12.623Z,16.90
2022-09-03T07:51:40.048Z,17.00
2022-09-03T07:54:10.101Z,17.00
2022-09-03T07:56:38.324Z,17.00
2022-09-03T07:59:06.360Z,17.00
2022-09-03T08:01:34.715Z,17.00
2022-09-03T08:04:04.401Z,17.10
2022-09-03T08:06:32.906Z,17.20
2022-09-03T08:09:05.795Z,17.10
2022-09-03T08:11:37.433Z,17.20
2022-09-03T08:14:07.634Z,17.30
2022-09-03T08:16:37.260Z,17.30
2022-09-03T08:19:05.357Z,17.30
2022-09-03T08:21:32.357Z,17.30
2022-09-03T08:24:05.863Z,17.30
2022-09-03T08:26:35.972Z,17.40
2022-09-03T08:29:04.715Z,17.40
2022-09-03T08:31:32.833Z,17.50
2022-09-03T08:34:06.952Z,17.50
2022-09-03T08:36:38.719Z,17.50
2022-09-03T08:39:10.235Z,17.50
2022-09-03T08:42:02.198Z,17.50
2022-09-03T08:44:56.848Z,17.60
2022-09-03T08:47:55.117Z,17.60
2022-09-03T08:50:26.193Z,17.60
2022-09-03T08:53:17.874Z,17.70
2022-09-03T08:55:55.083Z,17.70
2022-09-03T08:58:26.501Z,17.70
2022-09-03T09:01:18.877Z,17.80
2022-09-03T09:04:18.551Z,17.80
2022-09-03T09:07:01.957Z,17.80
2022-09-03T09:09:40.108Z,17.90
2022-09-03T09:12:25.835Z,17.90
2022-09-03T09:15:18.703Z,18.00
2022-09-03T09:17:58.368Z,17.90
2022-09-03T09:20:48.115Z,18.00
2022-09-03T09:23:29.344Z,18.00
2022-09-03T09:25:59.244Z,18.10
2022-09-03T09:28:34.962Z,18.10
2022-09-03T09:31:04.774Z,18.20
2022-09-03T09:33:33.257Z,18.10
2022-09-03T09:36:06.518Z,18.20
2022-09-03T09:38:37.063Z,18.20
2022-09-03T09:41:28.928Z,18.30
2022-09-03T09:44:05.320Z,18.20
2022-09-03T09:46:41.232Z,18.30
2022-09-03T09:49:31.340Z,18.30
2022-09-03T09:52:12.148Z,18.30
2022-09-03T09:54:41.053Z,18.30
2022-09-03T09:57:17.876Z,18.40
2022-09-03T09:59:46.387Z,18.40
2022-09-03T10:02:22.474Z,18.50
2022-09-03T10:04:50.229Z,18.50
2022-09-03T10:07:28.094Z,18.50
2022-09-03T10:10:19.725Z,18.50
2022-09-03T10:12:58.347Z,18.60
2022-09-03T10:15:28.069Z,18.70
2022-09-03T10:18:29.086Z,18.70
2022-09-03T10:21:14.905Z,18.80
2022-09-03T10:24:07.153Z,18.80
2022-09-03T10:26:37.025Z,18.90
2022-09-03T10:29:07.154Z,18.90
2022-09-03T10:31:41.287Z,18.90
2022-09-03T10:34:37.176Z,19.00
2022-09-03T10:37:33.845Z,18.90
2022-09-03T10:40:21.229Z,18.90
2022-09-03T10:43:12.173Z,19.00
2022-09-03T10:46:13.913Z,19.00
2022-09-03T10:48:46.769Z,19.00
2022-09-03T10:51:28.096Z,19.00
2022-09-03T10:54:21.068Z,19.10
2022-09-03T10:57:09.096Z,19.10
2022-09-03T10:59:51.434Z,19.10
2022-09-03T11:02:41.381Z,19.10
2022-09-03T11:06:04.239Z,19.20
2022-09-03T11:08:47.168Z,19.20
2022-09-03T11:11:33.394Z,19.30
2022-09-03T11:14:10.361Z,19.20
2022-09-03T11:16:55.896Z,19.20
2022-09-03T11:19:33.355Z,19.30
2022-09-03T11:22:00.942Z,19.30
2022-09-03T11:24:33.342Z,19.40
2022-09-03T11:27:12.531Z,19.40
2022-09-03T11:29:57.676Z,19.40
2022-09-03T11:32:55.678Z,19.40
2022-09-03T11:35:42.545Z,19.40
2022-09-03T11:38:24.765Z,19.40
2022-09-03T11:41:11.272Z,19.50
2022-09-03T11:43:39.807Z,19.40
2022-09-03T11:46:22.126Z,19.40
2022-09-03T11:48:57.993Z,19.50
2022-09-03T11:51:30.459Z,19.50
2022-09-03T11:54:02.255Z,19.50
2022-09-03T11:56:31.462Z,19.60
2022-09-03T11:59:07.497Z,19.60
2022-09-03T12:01:37.503Z,19.60
2022-09-03T12:04:09.772Z,19.60
2022-09-03T12:07:10.407Z,19.70
2022-09-03T12:10:00.523Z,19.70
2022-09-03T12:12:36.201Z,19.60
2022-09-03T12:15:22.918Z,19.60
2022-09-03T12:18:13.785Z,19.60
2022-09-03T12:20:42.472Z,19.60
2022-09-03T12:23:33.952Z,19.50
2022-09-03T12:26:09.667Z,19.50
2022-09-03T12:28:43.923Z,19.50
2022-09-03T12:31:25.590Z,19.50
2022-09-03T12:34:01.324Z,19.60
2022-09-03T12:36:43.089Z,19.50
2022-09-03T12:40:04.990Z,19.50
2022-09-03T12:42:24.438Z,19.60
2022-09-03T12:44:51.600Z,19.60
2022-09-03T12:47:37.900Z,19.70
2022-09-03T12:50:11.843Z,19.70
2022-09-03T12:52:46.585Z,19.70
2022-09-03T12:55:31.489Z,19.70
2022-09-03T12:58:13.967Z,19.80
2022-09-03T13:01:05.446Z,19.90
2022-09-03T13:03:46.468Z,20.00
2022-09-03T13:06:19.264Z,19.90
2022-09-03T13:09:00.132Z,20.00
2022-09-03T13:11:28.403Z,20.00
2022-09-03T13:14:11.208Z,19.90
2022-09-03T13:16:38.192Z,20.00
2022-09-03T13:19:14.613Z,20.00
2022-09-03T13:22:04.301Z,20.10
2022-09-03T13:24:43.867Z,20.00
2022-09-03T13:27:31.655Z,20.00
2022-09-03T13:30:17.329Z,20.00
2022-09-03T13:33:17.915Z,20.00
2022-09-03T13:35:54.504Z,20.00
2022-09-03T13:38:37.128Z,20.00
2022-09-03T13:41:39.166Z,20.00
2022-09-03T13:44:32.260Z,20.00
2022-09-03T13:47:15.742Z,20.00
2022-09-03T13:50:09.609Z,19.90
2022-09-03T13:52:48.233Z,20.00
2022-09-03T13:55:27.467Z,20.00
2022-09-03T13:58:19.934Z,20.00
2022-09-03T14:01:10.591Z,20.10
2022-09-03T14:03:49.416Z,20.10
2022-09-03T14:06:38.175Z,20.10
2022-09-03T14:09:17.015Z,20.00
2022-09-03T14:11:47.346Z,20.00
2022-09-03T14:14:32.515Z,20.00
2022-09-03T14:17:14.951Z,20.00
2022-09-03T14:20:08.414Z,20.10
2022-09-03T14:22:59.512Z,20.10
2022-09-03T14:25:28.510Z,20.20
2022-09-03T14:28:13.019Z,20.20
2022-09-03T14:30:59.745Z,20.20
2022-09-03T14:33:36.409Z,20.30
2022-09-03T14:36:23.331Z,20.20
2022-09-03T14:39:10.981Z,20.30
2022-09-03T14:41:54.944Z,20.20
2022-09-03T14:44:50.458Z,20.20
2022-09-03T14:47:36.209Z,20.20
2022-09-03T14:50:15.339Z,20.20
2022-09-03T14:53:20.179Z,20.20
2022-09-03T14:56:17.391Z,20.20
2022-09-03T14:59:10.025Z,20.10
2022-09-03T15:01:38.847Z,20.10
2022-09-03T15:04:45.586Z,20.10
2022-09-03T15:07:36.964Z,20.10
2022-09-03T15:10:46.595Z,20.10
2022-09-03T15:13:34.592Z,20.10
2022-09-03T15:16:01.677Z,20.10
2022-09-03T15:19:06.138Z,20.10
2022-09-03T15:21:51.638Z,20.10
2022-09-03T15:24:50.873Z,20.10
2022-09-03T15:27:40.385Z,20.10
2022-09-03T15:30:19.190Z,20.10
2022-09-03T15:33:04.830Z,20.10
2022-09-03T15:35:52.431Z,20.20
2022-09-03T15:38:41.635Z,20.10
2022-09-03T15:41:27.879Z,20.10
2022-09-03T15:44:19.020Z,20.20
2022-09-03T15:47:13.870Z,20.10
2022-09-03T15:49:52.823Z,20.10
2022-09-03T15:52:37.660Z,20.20
2022-09-03T15:55:15.113Z,20.20
2022-09-03T15:58:08.257Z,20.10
2022-09-03T16:00:42.167Z,20.20
2022-09-03T16:03:23.855Z,20.10
2022-09-03T16:06:28.106Z,20.10
2022-09-03T16:09:02.220Z,20.10
2022-09-03T16:11:45.594Z,20.10
2022-09-03T16:14:16.996Z,20.10
2022-09-03T16:16:52.983Z,20.10
2022-09-03T16:19:36.695Z,20.10
2022-09-03T16:22:22.444Z,20.10
2022-09-03T16:25:14.515Z,20.10
2022-09-03T16:28:15.118Z,20.00
2022-09-03T16:31:07.020Z,20.10
2022-09-03T16:33:57.583Z,20.10
2022-09-03T16:36:32.589Z,20.00
2022-09-03T16:39:12.468Z,20.00
2022-09-03T16:41:56.190Z,20.00
2022-09-03T16:44:32.400Z,20.10
2022-09-03T16:47:17.115Z,20.10
2022-09-03T16:50:40.796Z,20.10
2022-09-03T16:53:17.859Z,20.10
2022-09-03T16:55:57.347Z,20.10
2022-09-03T16:58:35.489Z,20.10
2022-09-03T17:01:20.690Z,20.10
2022-09-03T17:04:10.259Z,20.10
2022-09-03T17:06:48.085Z,20.10
2022-09-03T17:09:47.129Z,20.10
2022-09-03T17:12:36.020Z,20.10
2022-09-03T17:15:40.399Z,20.10
2022-09-03T17:18:25.461Z,20.10
2022-09-03T17:21:13.485Z,20.10
2022-09-03T17:23:59.653Z,20.10
2022-09-03T17:26:29.982Z,20.00
2022-09-03T17:28:57.882Z,20.10
2022-09-03T17:31:44.443Z,20.10
2022-09-03T17:34:36.746Z,20.10
2022-09-03T17:37:18.838Z,20.10
2022-09-03T17:40:12.052Z,20.10
2022-09-03T17:43:04.342Z,20.10
2022-09-03T17:45:34.131Z,20.10
2022-09-03T17:48:31.545Z,20.10
2022-09-03T17:51:15.362Z,20.10
2022-09-03T17:53:58.115Z,20.10
2022-09-03T17:56:30.255Z,20.10
2022-09-03T17:59:32.631Z,20.00
2022-09-03T18:02:15.483Z,20.10
2022-09-03T18:04:55.100Z,20.00
2022-09-03T18:07:58.389Z,20.00
2022-09-03T18:10:37.535Z,20.00
2022-09-03T18:13:16.202Z,20.00
2022-09-03T18:15:55.738Z,19.90
2022-09-03T18:18:33.323Z,19.90
2022-09-03T18:21:31.441Z,20.00
2022-09-03T18:24:23.902Z,19.90
2022-09-03T18:27:17.219Z,19.90
2022-09-03T18:30:26.849Z,19.90
2022-09-03T18:33:12.650Z,19.90
2022-09-03T18:35:58.419Z,19.80
2022-09-03T18:38:50.637Z,19.80
2022-09-03T18:41:47.896Z,19.80
2022-09-03T18:45:01.733Z,19.80
2022-09-03T18:48:20.636Z,19.70
2022-09-03T18:51:24.550Z,19.80
2022-09-03T18:55:03.926Z,19.70
2022-09-03T18:57:54.680Z,19.80
2022-09-03T19:00:40.951Z,19.70
2022-09-03T19:03:47.923Z,19.70
2022-09-03T19:06:53.829Z,19.60
2022-09-03T19:09:59.697Z,19.60
2022-09-03T19:12:59.531Z,19.60
2022-09-03T19:15:56.234Z,19.70
2022-09-03T19:19:14.241Z,19.70
2022-09-03T19:22:12.952Z,19.60
2022-09-03T19:24:58.740Z,19.60
2022-09-03T19:28:04.147Z,19.60
2022-09-03T19:31:16.040Z,19.70
2022-09-03T19:34:17.551Z,19.70
2022-09-03T19:37:19.378Z,19.60
2022-09-03T19:40:13.762Z,19.60
2022-09-03T19:42:59.532Z,19.60
2022-09-03T19:46:17.621Z,19.60
2022-09-03T19:49:13.943Z,19.60
2022-09-03T19:52:24.397Z,19.60
2022-09-03T19:55:15.370Z,19.60
2022-09-03T19:58:20.447Z,19.60
2022-09-03T20:01:12.692Z,19.60
2022-09-03T20:03:58.408Z,19.50
2022-09-03T20:06:44.062Z,19.50
2022-09-03T20:09:35.733Z,19.50
2022-09-03T20:12:10.085Z,19.50
2022-09-03T20:14:37.639Z,19.40
2022-09-03T20:17:26.072Z,19.40
2022-09-03T20:20:33.260Z,19.40
2022-09-03T20:23:06.441Z,19.30
2022-09-03T20:25:42.959Z,19.40
2022-09-03T20:28:29.000Z,19.40
2022-09-03T20:31:20.921Z,19.30
2022-09-03T20:34:12.954Z,19.30
2022-09-03T20:37:05.754Z,19.30
2022-09-03T20:40:12.964Z,19.30
2022-09-03T20:43:08.954Z,19.30
2022-09-03T20:46:09.574Z,19.30
2022-09-03T20:48:40.507Z,19.30
2022-09-03T20:51:16.708Z,19.30
2022-09-03T20:54:10.026Z,19.30
2022-09-03T20:56:36.944Z,19.40
2022-09-03T20:59:12.784Z,19.40
2022-09-03T21:02:10.955Z,19.40
2022-09-03T21:04:51.624Z,19.30
2022-09-03T21:07:46.637Z,19.30
2022-09-03T21:10:41.333Z,19.30
2022-09-03T21:13:38.431Z,19.40
2022-09-03T21:16:30.821Z,19.30
2022-09-03T21:19:20.185Z,19.40
2022-09-03T21:22:11.891Z,19.40
2022-09-03T21:24:52.073Z,19.40
2022-09-03T21:27:29.103Z,19.30
2022-09-03T21:30:03.453Z,19.40
2022-09-03T21:32:53.774Z,19.40
2022-09-03T21:35:38.348Z,19.30
2022-09-03T21:38:24.454Z,19.30
2022-09-03T21:41:14.705Z,19.40
2022-09-03T21:44:12.188Z,19.30
2022-09-03T21:46:55.067Z,19.30
2022-09-03T21:49:31.030Z,19.20
2022-09-03T21:52:03.322Z,19.20
2022-09-03T21:54:34.932Z,19.20
2022-09-03T21:57:12.368Z,19.20
2022-09-03T21:59:58.138Z,19.10
2022-09-03T22:02:27.203Z,19.10
2022-09-03T22:04:56.051Z,19.00
2022-09-03T22:07:32.956Z,18.90
2022-09-03T22:10:16.703Z,18.90
2022-09-03T22:13:02.320Z,18.80
2022-09-03T22:15:30.344Z,18.80
2022-09-03T22:18:16.578Z,18.70
2022-09-03T22:20:53.584Z,18.70
2022-09-03T22:23:31.354Z,18.60
2022-09-03T22:26:02.894Z,18.60
2022-09-03T22:28:46.106Z,18.60
2022-09-03T22:31:31.394Z,18.50
2022-09-03T22:34:04.646Z,18.50
2022-09-03T22:36:40.628Z,18.50
2022-09-03T22:39:13.355Z,18.40
2022-09-03T22:42:20.068Z,18.40
2022-09-03T22:44:57.164Z,18.40
2022-09-03T22:47:37.247Z,18.30
2022-09-03T22:50:20.559Z,18.40
2022-09-03T22:53:22.781Z,18.40
2022-09-03T22:56:09.095Z,18.30
2022-09-03T22:58:49.894Z,18.30
2022-09-03T23:01:41.469Z,18.30
2022-09-03T23:04:30.313Z,18.20
2022-09-03T23:07:20.307Z,18.20
2022-09-03T23:09:55.876Z,18.10
2022-09-03T23:12:53.878Z,18.10
2022-09-03T23:15:30.289Z,18.00
2022-09-03T23:18:24.156Z,17.90
2022-09-03T23:21:22.314Z,17.80
2022-09-03T23:23:55.144Z,17.80
2022-09-03T23:26:40.606Z,17.80
2022-09-03T23:29:16.031Z,17.70
2022-09-03T23:31:43.425Z,17.70
2022-09-03T23:34:12.113Z,17.70
2022-09-03T23:37:29.664Z,17.60
2022-09-03T23:40:17.367Z,17.50
2022-09-03T23:42:47.359Z,17.40
2022-09-03T23:45:30.094Z,17.40
2022-09-03T23:48:24.619Z,17.30
2022-09-03T23:51:28.187Z,17.30
2022-09-03T23:54:22.495Z,17.20
2022-09-03T23:57:14.167Z,17.20
2022-09-03T23:59:41.149Z,17.20
